sensor_id;sensor_type;location;lat;lon;timestamp;pressure;altitude;pressure_sealevel;temperature
20848;BMP180;10584;50.854;12.902;2024-02-23T00:00:51;95413.00;;;11.30
20848;BMP180;10584;50.854;12.902;2024-02-23T00:06:13;95416.00;;;11.40
20848;BMP180;10584;50.854;12.902;2024-02-23T00:11:42;95421.00;;;11.20
20848;BMP180;10584;50.854;12.902;2024-02-23T00:17:08;95419.00;;;11.10
20848;BMP180;10584;50.854;12.902;2024-02-23T00:22:34;95416.00;;;11.00
20848;BMP180;10584;50.854;12.902;2024-02-23T00:27:58;95402.00;;;10.90
20848;BMP180;10584;50.854;12.902;2024-02-23T00:33:21;95421.00;;;11.00
20848;BMP180;10584;50.854;12.902;2024-02-23T00:38:46;95419.00;;;10.90
20848;BMP180;10584;50.854;12.902;2024-02-23T00:44:08;95452.00;;;10.80
20848;BMP180;10584;50.854;12.902;2024-02-23T00:49:30;95466.00;;;10.90
20848;BMP180;10584;50.854;12.902;2024-02-23T00:54:52;95489.00;;;10.80
20848;BMP180;10584;50.854;12.902;2024-02-23T01:00:15;95501.00;;;10.80
20848;BMP180;10584;50.854;12.902;2024-02-23T01:05:37;95502.00;;;10.70
20848;BMP180;10584;50.854;12.902;2024-02-23T01:11:00;95551.00;;;10.60
20848;BMP180;10584;50.854;12.902;2024-02-23T01:16:24;95549.00;;;10.50
20848;BMP180;10584;50.854;12.902;2024-02-23T01:21:49;95561.00;;;10.50
20848;BMP180;10584;50.854;12.902;2024-02-23T01:27:20;95586.00;;;10.40
20848;BMP180;10584;50.854;12.902;2024-02-23T01:32:45;95595.00;;;10.30
20848;BMP180;10584;50.854;12.902;2024-02-23T01:38:15;95582.00;;;10.20
20848;BMP180;10584;50.854;12.902;2024-02-23T01:43:45;95581.00;;;10.20
20848;BMP180;10584;50.854;12.902;2024-02-23T01:49:12;95602.00;;;10.20
20848;BMP180;10584;50.854;12.902;2024-02-23T01:54:36;95619.00;;;10.00
20848;BMP180;10584;50.854;12.902;2024-02-23T02:00:00;95628.00;;;9.90
20848;BMP180;10584;50.854;12.902;2024-02-23T02:05:25;95644.00;;;9.80
20848;BMP180;10584;50.854;12.902;2024-02-23T02:10:47;95625.00;;;9.80
20848;BMP180;10584;50.854;12.902;2024-02-23T02:16:09;95635.00;;;9.60
20848;BMP180;10584;50.854;12.902;2024-02-23T02:21:33;95654.00;;;9.60
20848;BMP180;10584;50.854;12.902;2024-02-23T02:26:56;95680.00;;;9.50
20848;BMP180;10584;50.854;12.902;2024-02-23T02:32:19;95677.00;;;9.40
20848;BMP180;10584;50.854;12.902;2024-02-23T02:37:42;95694.00;;;9.40
20848;BMP180;10584;50.854;12.902;2024-02-23T02:43:04;95710.00;;;9.30
20848;BMP180;10584;50.854;12.902;2024-02-23T02:48:28;95708.00;;;9.20
20848;BMP180;10584;50.854;12.902;2024-02-23T02:53:51;95725.00;;;8.90
20848;BMP180;10584;50.854;12.902;2024-02-23T02:59:13;95722.00;;;9.00
20848;BMP180;10584;50.854;12.902;2024-02-23T03:04:35;95736.00;;;8.90
20848;BMP180;10584;50.854;12.902;2024-02-23T03:09:58;95742.00;;;8.70
20848;BMP180;10584;50.854;12.902;2024-02-23T03:15:20;95753.00;;;8.40
20848;BMP180;10584;50.854;12.902;2024-02-23T03:20:43;95776.00;;;8.30
20848;BMP180;10584;50.854;12.902;2024-02-23T03:26:07;95796.00;;;8.20
20848;BMP180;10584;50.854;12.902;2024-02-23T03:31:29;95810.00;;;8.00
20848;BMP180;10584;50.854;12.902;2024-02-23T03:36:52;95812.00;;;8.00
20848;BMP180;10584;50.854;12.902;2024-02-23T03:42:14;95837.00;;;7.90
20848;BMP180;10584;50.854;12.902;2024-02-23T03:47:38;95869.00;;;7.70
20848;BMP180;10584;50.854;12.902;2024-02-23T03:53:03;95880.00;;;7.60
20848;BMP180;10584;50.854;12.902;2024-02-23T03:58:27;95907.00;;;7.60
20848;BMP180;10584;50.854;12.902;2024-02-23T04:03:51;95904.00;;;7.50
20848;BMP180;10584;50.854;12.902;2024-02-23T04:09:14;95912.00;;;7.40
20848;BMP180;10584;50.854;12.902;2024-02-23T04:14:36;95923.00;;;7.20
20848;BMP180;10584;50.854;12.902;2024-02-23T04:20:01;95918.00;;;7.10
20848;BMP180;10584;50.854;12.902;2024-02-23T04:25:27;95928.00;;;7.00
20848;BMP180;10584;50.854;12.902;2024-02-23T04:30:49;95934.00;;;6.90
20848;BMP180;10584;50.854;12.902;2024-02-23T04:36:11;95940.00;;;6.90
20848;BMP180;10584;50.854;12.902;2024-02-23T04:41:33;95965.00;;;6.80
20848;BMP180;10584;50.854;12.902;2024-02-23T04:46:55;95992.00;;;6.70
20848;BMP180;10584;50.854;12.902;2024-02-23T04:52:17;96011.00;;;6.80
20848;BMP180;10584;50.854;12.902;2024-02-23T04:57:39;96018.00;;;6.70
20848;BMP180;10584;50.854;12.902;2024-02-23T05:03:01;96000.00;;;6.60
20848;BMP180;10584;50.854;12.902;2024-02-23T05:08:27;95983.00;;;6.60
20848;BMP180;10584;50.854;12.902;2024-02-23T05:13:49;95967.00;;;6.60
20848;BMP180;10584;50.854;12.902;2024-02-23T05:19:11;95972.00;;;6.50
20848;BMP180;10584;50.854;12.902;2024-02-23T05:24:33;95966.00;;;6.50
20848;BMP180;10584;50.854;12.902;2024-02-23T05:29:55;95988.00;;;6.50
20848;BMP180;10584;50.854;12.902;2024-02-23T05:35:17;96000.00;;;6.40
20848;BMP180;10584;50.854;12.902;2024-02-23T05:40:39;96030.00;;;6.50
20848;BMP180;10584;50.854;12.902;2024-02-23T05:46:01;96044.00;;;6.40
20848;BMP180;10584;50.854;12.902;2024-02-23T05:51:23;96050.00;;;6.20
20848;BMP180;10584;50.854;12.902;2024-02-23T05:56:45;96056.00;;;6.20
20848;BMP180;10584;50.854;12.902;2024-02-23T06:02:07;96069.00;;;6.20
20848;BMP180;10584;50.854;12.902;2024-02-23T06:07:30;96078.00;;;6.20
20848;BMP180;10584;50.854;12.902;2024-02-23T06:12:55;96092.00;;;6.20
20848;BMP180;10584;50.854;12.902;2024-02-23T06:18:19;96081.00;;;6.40
20848;BMP180;10584;50.854;12.902;2024-02-23T06:23:42;96104.00;;;6.20
20848;BMP180;10584;50.854;12.902;2024-02-23T06:29:04;96106.00;;;6.20
20848;BMP180;10584;50.854;12.902;2024-02-23T06:34:27;96113.00;;;6.30
20848;BMP180;10584;50.854;12.902;2024-02-23T06:39:49;96103.00;;;6.30
20848;BMP180;10584;50.854;12.902;2024-02-23T06:45:17;96100.00;;;6.10
20848;BMP180;10584;50.854;12.902;2024-02-23T06:50:38;96107.00;;;6.30
20848;BMP180;10584;50.854;12.902;2024-02-23T06:56:00;96114.00;;;6.40
20848;BMP180;10584;50.854;12.902;2024-02-23T07:01:22;96135.00;;;6.30
20848;BMP180;10584;50.854;12.902;2024-02-23T07:06:45;96144.00;;;6.40
20848;BMP180;10584;50.854;12.902;2024-02-23T07:12:07;96169.00;;;6.50
20848;BMP180;10584;50.854;12.902;2024-02-23T07:17:30;96175.00;;;6.60
20848;BMP180;10584;50.854;12.902;2024-02-23T07:22:52;96195.00;;;6.60
20848;BMP180;10584;50.854;12.902;2024-02-23T07:28:14;96188.00;;;6.50
20848;BMP180;10584;50.854;12.902;2024-02-23T07:33:40;96190.00;;;6.50
20848;BMP180;10584;50.854;12.902;2024-02-23T07:39:02;96219.00;;;6.50
20848;BMP180;10584;50.854;12.902;2024-02-23T07:44:24;96227.00;;;6.60
20848;BMP180;10584;50.854;12.902;2024-02-23T07:49:47;96216.00;;;6.60
20848;BMP180;10584;50.854;12.902;2024-02-23T07:55:09;96215.00;;;6.60
20848;BMP180;10584;50.854;12.902;2024-02-23T08:00:34;96246.00;;;6.60
20848;BMP180;10584;50.854;12.902;2024-02-23T08:05:59;96252.00;;;6.60
20848;BMP180;10584;50.854;12.902;2024-02-23T08:11:24;96250.00;;;6.60
20848;BMP180;10584;50.854;12.902;2024-02-23T08:16:46;96254.00;;;6.50
20848;BMP180;10584;50.854;12.902;2024-02-23T08:22:09;96233.00;;;6.60
20848;BMP180;10584;50.854;12.902;2024-02-23T08:27:31;96240.00;;;6.50
20848;BMP180;10584;50.854;12.902;2024-02-23T08:32:53;96241.00;;;6.70
20848;BMP180;10584;50.854;12.902;2024-02-23T08:38:18;96232.00;;;6.70
20848;BMP180;10584;50.854;12.902;2024-02-23T08:43:40;96217.00;;;6.90
20848;BMP180;10584;50.854;12.902;2024-02-23T08:49:02;96248.00;;;6.90
20848;BMP180;10584;50.854;12.902;2024-02-23T08:54:25;96263.00;;;7.10
20848;BMP180;10584;50.854;12.902;2024-02-23T08:59:47;96272.00;;;7.10
20848;BMP180;10584;50.854;12.902;2024-02-23T09:05:12;96279.00;;;7.20
20848;BMP180;10584;50.854;12.902;2024-02-23T09:10:34;96295.00;;;6.90
20848;BMP180;10584;50.854;12.902;2024-02-23T09:15:56;96282.00;;;7.00
20848;BMP180;10584;50.854;12.902;2024-02-23T09:21:18;96293.00;;;7.00
20848;BMP180;10584;50.854;12.902;2024-02-23T09:26:40;96282.00;;;7.10
20848;BMP180;10584;50.854;12.902;2024-02-23T09:32:03;96271.00;;;7.20
20848;BMP180;10584;50.854;12.902;2024-02-23T09:37:26;96274.00;;;7.30
20848;BMP180;10584;50.854;12.902;2024-02-23T09:42:57;96280.00;;;7.10
20848;BMP180;10584;50.854;12.902;2024-02-23T09:48:19;96297.00;;;7.40
20848;BMP180;10584;50.854;12.902;2024-02-23T09:53:43;96304.00;;;7.40
20848;BMP180;10584;50.854;12.902;2024-02-23T09:59:05;96305.00;;;7.40
20848;BMP180;10584;50.854;12.902;2024-02-23T10:04:28;96306.00;;;7.50
20848;BMP180;10584;50.854;12.902;2024-02-23T10:09:52;96317.00;;;7.50
20848;BMP180;10584;50.854;12.902;2024-02-23T10:15:15;96313.00;;;7.90
20848;BMP180;10584;50.854;12.902;2024-02-23T10:20:38;96337.00;;;8.00
20848;BMP180;10584;50.854;12.902;2024-02-23T10:26:00;96329.00;;;8.00
20848;BMP180;10584;50.854;12.902;2024-02-23T10:31:24;96326.00;;;8.00
20848;BMP180;10584;50.854;12.902;2024-02-23T10:36:47;96340.00;;;7.70
20848;BMP180;10584;50.854;12.902;2024-02-23T10:42:13;96335.00;;;7.40
20848;BMP180;10584;50.854;12.902;2024-02-23T10:47:35;96354.00;;;7.40
20848;BMP180;10584;50.854;12.902;2024-02-23T10:53:04;96369.00;;;7.50
20848;BMP180;10584;50.854;12.902;2024-02-23T10:58:26;96377.00;;;7.30
20848;BMP180;10584;50.854;12.902;2024-02-23T11:03:49;96354.00;;;7.40
20848;BMP180;10584;50.854;12.902;2024-02-23T11:09:13;96347.00;;;7.40
20848;BMP180;10584;50.854;12.902;2024-02-23T11:14:38;96350.00;;;7.40
20848;BMP180;10584;50.854;12.902;2024-02-23T11:20:04;96368.00;;;7.50
20848;BMP180;10584;50.854;12.902;2024-02-23T11:25:27;96372.00;;;7.50
20848;BMP180;10584;50.854;12.902;2024-02-23T11:30:51;96369.00;;;7.50
20848;BMP180;10584;50.854;12.902;2024-02-23T11:36:23;96351.00;;;7.30
20848;BMP180;10584;50.854;12.902;2024-02-23T11:41:48;96359.00;;;7.40
20848;BMP180;10584;50.854;12.902;2024-02-23T11:47:13;96360.00;;;7.60
20848;BMP180;10584;50.854;12.902;2024-02-23T11:52:38;96337.00;;;7.50
20848;BMP180;10584;50.854;12.902;2024-02-23T11:58:01;96343.00;;;7.50
20848;BMP180;10584;50.854;12.902;2024-02-23T12:03:32;96342.00;;;7.40
20848;BMP180;10584;50.854;12.902;2024-02-23T12:08:54;96346.00;;;7.50
20848;BMP180;10584;50.854;12.902;2024-02-23T12:14:16;96361.00;;;7.50
20848;BMP180;10584;50.854;12.902;2024-02-23T12:19:40;96358.00;;;7.50
20848;BMP180;10584;50.854;12.902;2024-02-23T12:25:03;96333.00;;;7.70
20848;BMP180;10584;50.854;12.902;2024-02-23T12:30:26;96343.00;;;7.70
20848;BMP180;10584;50.854;12.902;2024-02-23T12:35:55;96335.00;;;7.70
20848;BMP180;10584;50.854;12.902;2024-02-23T12:41:20;96341.00;;;7.80
20848;BMP180;10584;50.854;12.902;2024-02-23T12:46:42;96340.00;;;7.80
20848;BMP180;10584;50.854;12.902;2024-02-23T12:52:04;96359.00;;;7.90
20848;BMP180;10584;50.854;12.902;2024-02-23T12:57:26;96358.00;;;7.90
20848;BMP180;10584;50.854;12.902;2024-02-23T13:02:48;96356.00;;;7.80
20848;BMP180;10584;50.854;12.902;2024-02-23T13:08:11;96360.00;;;7.80
20848;BMP180;10584;50.854;12.902;2024-02-23T13:13:33;96347.00;;;8.00
20848;BMP180;10584;50.854;12.902;2024-02-23T13:18:55;96357.00;;;8.20
20848;BMP180;10584;50.854;12.902;2024-02-23T13:24:17;96364.00;;;7.80
20848;BMP180;10584;50.854;12.902;2024-02-23T13:29:39;96352.00;;;7.70
20848;BMP180;10584;50.854;12.902;2024-02-23T13:35:01;96364.00;;;7.80
20848;BMP180;10584;50.854;12.902;2024-02-23T13:40:26;96365.00;;;7.70
20848;BMP180;10584;50.854;12.902;2024-02-23T13:45:49;96362.00;;;7.70
20848;BMP180;10584;50.854;12.902;2024-02-23T13:51:15;96362.00;;;7.80
20848;BMP180;10584;50.854;12.902;2024-02-23T13:56:37;96356.00;;;7.80
20848;BMP180;10584;50.854;12.902;2024-02-23T14:01:59;96363.00;;;7.80
20848;BMP180;10584;50.854;12.902;2024-02-23T14:07:21;96378.00;;;7.70
20848;BMP180;10584;50.854;12.902;2024-02-23T14:12:44;96375.00;;;7.50
20848;BMP180;10584;50.854;12.902;2024-02-23T14:18:06;96374.00;;;7.60
20848;BMP180;10584;50.854;12.902;2024-02-23T14:23:28;96387.00;;;7.60
20848;BMP180;10584;50.854;12.902;2024-02-23T14:28:50;96381.00;;;7.70
20848;BMP180;10584;50.854;12.902;2024-02-23T14:34:12;96374.00;;;7.50
20848;BMP180;10584;50.854;12.902;2024-02-23T14:39:34;96375.00;;;7.50
20848;BMP180;10584;50.854;12.902;2024-02-23T14:44:57;96365.00;;;7.50
20848;BMP180;10584;50.854;12.902;2024-02-23T14:50:19;96364.00;;;7.30
20848;BMP180;10584;50.854;12.902;2024-02-23T14:55:41;96370.00;;;7.30
20848;BMP180;10584;50.854;12.902;2024-02-23T15:01:07;96357.00;;;7.30
20848;BMP180;10584;50.854;12.902;2024-02-23T15:06:29;96358.00;;;7.30
20848;BMP180;10584;50.854;12.902;2024-02-23T15:11:51;96363.00;;;7.30
20848;BMP180;10584;50.854;12.902;2024-02-23T15:17:14;96376.00;;;7.00
20848;BMP180;10584;50.854;12.902;2024-02-23T15:22:36;96381.00;;;7.20
20848;BMP180;10584;50.854;12.902;2024-02-23T15:28:04;96369.00;;;7.10
20848;BMP180;10584;50.854;12.902;2024-02-23T15:33:26;96334.00;;;6.90
20848;BMP180;10584;50.854;12.902;2024-02-23T15:38:49;96345.00;;;7.10
20848;BMP180;10584;50.854;12.902;2024-02-23T15:44:10;96353.00;;;6.90
20848;BMP180;10584;50.854;12.902;2024-02-23T15:49:33;96353.00;;;6.90
20848;BMP180;10584;50.854;12.902;2024-02-23T15:55:15;96356.00;;;6.90
20848;BMP180;10584;50.854;12.902;2024-02-23T16:00:37;96366.00;;;7.00
20848;BMP180;10584;50.854;12.902;2024-02-23T16:06:00;96379.00;;;7.00
20848;BMP180;10584;50.854;12.902;2024-02-23T16:11:22;96428.00;;;6.80
20848;BMP180;10584;50.854;12.902;2024-02-23T16:16:44;96436.00;;;6.90
20848;BMP180;10584;50.854;12.902;2024-02-23T16:22:06;96451.00;;;6.70
20848;BMP180;10584;50.854;12.902;2024-02-23T16:27:28;96437.00;;;6.60
20848;BMP180;10584;50.854;12.902;2024-02-23T16:32:50;96434.00;;;6.70
20848;BMP180;10584;50.854;12.902;2024-02-23T16:38:15;96406.00;;;6.60
20848;BMP180;10584;50.854;12.902;2024-02-23T16:43:37;96392.00;;;6.50
20848;BMP180;10584;50.854;12.902;2024-02-23T16:48:59;96392.00;;;6.50
20848;BMP180;10584;50.854;12.902;2024-02-23T16:54:21;96393.00;;;6.50
20848;BMP180;10584;50.854;12.902;2024-02-23T16:59:43;96397.00;;;6.50
20848;BMP180;10584;50.854;12.902;2024-02-23T17:05:06;96394.00;;;6.30
20848;BMP180;10584;50.854;12.902;2024-02-23T17:10:30;96397.00;;;6.30
20848;BMP180;10584;50.854;12.902;2024-02-23T17:15:52;96394.00;;;6.30
20848;BMP180;10584;50.854;12.902;2024-02-23T17:21:15;96418.00;;;6.30
20848;BMP180;10584;50.854;12.902;2024-02-23T17:26:38;96414.00;;;6.20
20848;BMP180;10584;50.854;12.902;2024-02-23T17:32:00;96418.00;;;6.10
20848;BMP180;10584;50.854;12.902;2024-02-23T17:37:23;96404.00;;;6.10
20848;BMP180;10584;50.854;12.902;2024-02-23T17:42:46;96404.00;;;5.90
20848;BMP180;10584;50.854;12.902;2024-02-23T17:48:08;96399.00;;;5.90
20848;BMP180;10584;50.854;12.902;2024-02-23T17:53:31;96400.00;;;5.80
20848;BMP180;10584;50.854;12.902;2024-02-23T17:58:53;96402.00;;;5.80
20848;BMP180;10584;50.854;12.902;2024-02-23T18:04:15;96407.00;;;5.80
20848;BMP180;10584;50.854;12.902;2024-02-23T18:09:37;96414.00;;;5.70
20848;BMP180;10584;50.854;12.902;2024-02-23T18:14:59;96404.00;;;5.60
20848;BMP180;10584;50.854;12.902;2024-02-23T18:20:22;96401.00;;;5.50
20848;BMP180;10584;50.854;12.902;2024-02-23T18:25:45;96407.00;;;5.40
20848;BMP180;10584;50.854;12.902;2024-02-23T18:31:07;96394.00;;;5.20
20848;BMP180;10584;50.854;12.902;2024-02-23T18:36:30;96386.00;;;5.10
20848;BMP180;10584;50.854;12.902;2024-02-23T18:41:51;96384.00;;;5.10
20848;BMP180;10584;50.854;12.902;2024-02-23T18:47:13;96388.00;;;5.00
20848;BMP180;10584;50.854;12.902;2024-02-23T18:52:35;96386.00;;;4.90
20848;BMP180;10584;50.854;12.902;2024-02-23T18:57:57;96419.00;;;4.80
20848;BMP180;10584;50.854;12.902;2024-02-23T19:03:19;96408.00;;;4.70
20848;BMP180;10584;50.854;12.902;2024-02-23T19:08:42;96399.00;;;4.60
20848;BMP180;10584;50.854;12.902;2024-02-23T19:14:04;96389.00;;;4.60
20848;BMP180;10584;50.854;12.902;2024-02-23T19:19:26;96376.00;;;4.50
20848;BMP180;10584;50.854;12.902;2024-02-23T19:24:48;96400.00;;;4.40
20848;BMP180;10584;50.854;12.902;2024-02-23T19:30:10;96415.00;;;4.40
20848;BMP180;10584;50.854;12.902;2024-02-23T19:35:37;96431.00;;;4.30
20848;BMP180;10584;50.854;12.902;2024-02-23T19:40:59;96420.00;;;4.20
20848;BMP180;10584;50.854;12.902;2024-02-23T19:46:21;96421.00;;;4.10
20848;BMP180;10584;50.854;12.902;2024-02-23T19:51:46;96415.00;;;4.10
20848;BMP180;10584;50.854;12.902;2024-02-23T19:57:09;96418.00;;;4.00
20848;BMP180;10584;50.854;12.902;2024-02-23T20:02:33;96404.00;;;4.00
20848;BMP180;10584;50.854;12.902;2024-02-23T20:07:55;96399.00;;;4.00
20848;BMP180;10584;50.854;12.902;2024-02-23T20:13:18;96383.00;;;3.90
20848;BMP180;10584;50.854;12.902;2024-02-23T20:18:39;96368.00;;;3.80
20848;BMP180;10584;50.854;12.902;2024-02-23T20:24:01;96351.00;;;3.80
20848;BMP180;10584;50.854;12.902;2024-02-23T20:29:27;96367.00;;;3.80
20848;BMP180;10584;50.854;12.902;2024-02-23T20:34:57;96396.00;;;3.80
20848;BMP180;10584;50.854;12.902;2024-02-23T20:40:21;96397.00;;;3.70
20848;BMP180;10584;50.854;12.902;2024-02-23T20:45:43;96398.00;;;3.70
20848;BMP180;10584;50.854;12.902;2024-02-23T20:51:06;96400.00;;;3.60
20848;BMP180;10584;50.854;12.902;2024-02-23T20:56:29;96408.00;;;3.50
20848;BMP180;10584;50.854;12.902;2024-02-23T21:01:53;96417.00;;;3.50
20848;BMP180;10584;50.854;12.902;2024-02-23T21:07:16;96422.00;;;3.40
20848;BMP180;10584;50.854;12.902;2024-02-23T21:12:40;96428.00;;;3.40
20848;BMP180;10584;50.854;12.902;2024-02-23T21:18:02;96429.00;;;3.40
20848;BMP180;10584;50.854;12.902;2024-02-23T21:23:24;96430.00;;;3.30
20848;BMP180;10584;50.854;12.902;2024-02-23T21:28:47;96423.00;;;3.30
20848;BMP180;10584;50.854;12.902;2024-02-23T21:34:08;96407.00;;;3.30
20848;BMP180;10584;50.854;12.902;2024-02-23T21:39:31;96403.00;;;3.30
20848;BMP180;10584;50.854;12.902;2024-02-23T21:44:53;96391.00;;;3.30
20848;BMP180;10584;50.854;12.902;2024-02-23T21:50:15;96376.00;;;3.20
20848;BMP180;10584;50.854;12.902;2024-02-23T21:55:39;96391.00;;;3.20
20848;BMP180;10584;50.854;12.902;2024-02-23T22:01:01;96393.00;;;3.10
20848;BMP180;10584;50.854;12.902;2024-02-23T22:06:23;96403.00;;;3.10
20848;BMP180;10584;50.854;12.902;2024-02-23T22:11:45;96392.00;;;3.00
20848;BMP180;10584;50.854;12.902;2024-02-23T22:17:07;96387.00;;;3.00
20848;BMP180;10584;50.854;12.902;2024-02-23T22:22:29;96393.00;;;2.90
20848;BMP180;10584;50.854;12.902;2024-02-23T22:27:51;96391.00;;;2.90
20848;BMP180;10584;50.854;12.902;2024-02-23T22:33:13;96389.00;;;2.90
20848;BMP180;10584;50.854;12.902;2024-02-23T22:38:37;96389.00;;;2.80
20848;BMP180;10584;50.854;12.902;2024-02-23T22:44:02;96383.00;;;2.70
20848;BMP180;10584;50.854;12.902;2024-02-23T22:49:24;96385.00;;;2.60
20848;BMP180;10584;50.854;12.902;2024-02-23T22:54:46;96401.00;;;2.50
20848;BMP180;10584;50.854;12.902;2024-02-23T23:00:08;96415.00;;;2.40
20848;BMP180;10584;50.854;12.902;2024-02-23T23:05:34;96418.00;;;2.40
20848;BMP180;10584;50.854;12.902;2024-02-23T23:10:57;96414.00;;;2.30
20848;BMP180;10584;50.854;12.902;2024-02-23T23:16:19;96412.00;;;2.20
20848;BMP180;10584;50.854;12.902;2024-02-23T23:21:41;96413.00;;;2.10
20848;BMP180;10584;50.854;12.902;2024-02-23T23:27:04;96414.00;;;2.10
20848;BMP180;10584;50.854;12.902;2024-02-23T23:32:26;96404.00;;;2.00
20848;BMP180;10584;50.854;12.902;2024-02-23T23:37:48;96418.00;;;2.00
20848;BMP180;10584;50.854;12.902;2024-02-23T23:43:10;96401.00;;;1.90
20848;BMP180;10584;50.854;12.902;2024-02-23T23:48:32;96393.00;;;1.90
20848;BMP180;10584;50.854;12.902;2024-02-23T23:54:18;96393.00;;;1.90
20848;BMP180;10584;50.854;12.902;2024-02-23T23:59:40;96397.00;;;1.90
